Kezdőlap
METAR-TAF:

METAR-TAF

Repülőterek :

Tulcsa, Románia

földrajzi szélesség: 45-11N, földrajzi hosszúság: 028-49E, magasság: 4 m

Jelenlegi meteorológiai megfigyelések

A jelentés 34 perccel ezelõtt készült, 11:00 UTC
Nyugat-délnyugati szél 6 kt, dél-délnyugati és nyugat-északnyugati között változik
Hőmérséklet 19°C
Páratartalom 34%
Légköri nyomás 1017 hPa
Látótávolság 10 km, vagy több
felhőtlen 1500 m magasságban, és nincs gomolyfelhõ

METAR: LRTC 231100Z 25006KT 210V290 CAVOK 19/03 Q1017

Idő: 14:34 (11:34 UTC)

Előrejelzés

A jelentés 3 órával és 34 perccel ezelõtt készült, 08:00 UTC
Az előrejelzés 23-én 09 óra UTC és 23-én 18 óra UTC között érvényes
Különbözõ irányokból fújó szél 4 kt
Látótávolság 10 km, vagy több
felhőtlen 1500 m magasságban, és nincs gomolyfelhõ
23-én 12 óra UTC és 23-én 14 óra UTC között fokozatosan kialakuló
Nyugat-délnyugati szél 10 kt

TAF: LRTC 230800Z 2309/2318 VRB04KT CAVOK BECMG 2312/2314 24010KT

Meteorológiai megfigyelések és előrejelzések több, mint 4000 repülőtéren (METAR és TAF jelentéseket).

A térképen piros és sárga pontok jelzik az elérhető meteorológiai állomásokat.

Mozgassa az egeret a pont fölött, hogy megjelenjen az állomás neve.

Azután kattintson az időjárási megfigyelések és előrejelzések megtekintéséhez.

A térkép megváltoztatása: kattintson a fekete keresztel jelölt zöld gombra ráközelítéshez, a vonallal jelölt zöld gombra távolításhoz, vagy a zöld nyilakra a szomszédos térképek eléréséhez.


METAR-TAF: